Time;durP1;ratioP1;P1;durP2;ratioP2;P2;SDS_P1;SDS_P2;PMS_P1;PMS_P2;Temp;Humidity;BMP_temperature;BMP_pressure;BME280_temperature;BME280_humidity;BME280_pressure;Samples;Min_cycle;Max_cycle;Signal;HPM_P1;HPM_P2
2022/12/21 00:01:47;;;;;;;10.00;9.40;;;10.90;35.20;;;;;;5009076;28;20308;-74
2022/12/21 00:04:12;;;;;;;9.07;8.57;;;11.00;34.80;;;;;;4991937;28;20507;-74
2022/12/21 00:06:38;;;;;;;8.40;8.10;;;11.00;34.90;;;;;;5009685;28;20723;-73
2022/12/21 00:09:06;;;;;;;8.80;8.30;;;11.00;34.80;;;;;;5009303;28;20593;-74
2022/12/21 00:11:34;;;;;;;8.63;8.13;;;10.90;34.80;;;;;;5009353;28;20424;-73
2022/12/21 00:14:02;;;;;;;8.37;7.93;;;10.90;34.90;;;;;;5008801;28;20400;-74
2022/12/21 00:16:31;;;;;;;8.90;8.30;;;10.80;35.10;;;;;;5008981;28;20408;-74
2022/12/21 00:18:57;;;;;;;8.63;8.13;;;10.90;35.50;;;;;;5008739;28;20432;-73
2022/12/21 00:21:26;;;;;;;8.70;8.20;;;10.90;35.40;;;;;;5009727;28;20416;-74
2022/12/21 00:23:54;;;;;;;7.90;7.60;;;10.90;36.30;;;;;;4992924;28;20420;-75
2022/12/21 00:26:23;;;;;;;8.53;8.10;;;10.80;36.40;;;;;;5008426;28;20503;-74
2022/12/21 00:28:51;;;;;;;7.90;7.60;;;10.80;36.80;;;;;;5008616;28;20432;-74
2022/12/21 00:31:19;;;;;;;8.30;7.80;;;10.90;36.50;;;;;;4991144;28;20839;-74
2022/12/21 00:33:45;;;;;;;7.53;7.23;;;10.90;36.50;;;;;;5008064;28;20467;-74
2022/12/21 00:36:16;;;;;;;9.10;8.33;;;10.90;36.80;;;;;;5008101;28;20765;-75
2022/12/21 00:38:43;;;;;;;7.73;7.40;;;10.90;36.70;;;;;;5008438;28;20432;-75
2022/12/21 00:41:11;;;;;;;7.70;7.40;;;10.90;37.20;;;;;;5009478;28;20416;-74
2022/12/21 00:43:40;;;;;;;7.93;7.63;;;10.90;37.20;;;;;;5011923;28;20439;-74
2022/12/21 00:46:06;;;;;;;7.30;7.00;;;10.90;37.50;;;;;;5011717;28;20555;-76
2022/12/21 00:48:34;;;;;;;8.10;7.70;;;10.90;37.60;;;;;;4994994;28;20440;-76
2022/12/21 00:51:08;;;;;;;8.40;8.00;;;10.90;37.60;;;;;;4993631;28;20448;-75
2022/12/21 00:53:35;;;;;;;8.70;8.30;;;10.90;37.70;;;;;;5011941;28;20420;-75
2022/12/21 00:56:03;;;;;;;7.90;7.60;;;10.90;37.70;;;;;;5011109;28;20443;-75
2022/12/21 00:58:29;;;;;;;9.43;8.53;;;10.90;37.70;;;;;;5011709;28;20719;-74
2022/12/21 01:00:57;;;;;;;8.37;8.00;;;10.80;37.90;;;;;;5010698;28;20416;-74
2022/12/21 01:03:24;;;;;;;8.20;7.70;;;10.80;38.10;;;;;;5011388;28;20507;-75
2022/12/21 01:05:51;;;;;;;6.93;6.73;;;10.80;38.00;;;;;;5011854;28;20471;-74
2022/12/21 01:08:18;;;;;;;7.37;7.07;;;10.80;37.50;;;;;;5011500;28;20452;-74
2022/12/21 01:10:44;;;;;;;8.57;8.17;;;10.80;37.30;;;;;;5011306;28;20416;-74
2022/12/21 01:13:11;;;;;;;9.10;8.70;;;10.80;37.30;;;;;;5011234;28;20944;-74
2022/12/21 01:15:41;;;;;;;9.67;9.27;;;10.90;37.20;;;;;;5011329;28;20838;-74
2022/12/21 01:18:08;;;;;;;9.63;9.07;;;10.80;37.50;;;;;;5011009;28;20795;-74
2022/12/21 01:20:33;;;;;;;7.97;7.67;;;10.80;37.40;;;;;;5011113;28;20423;-73
2022/12/21 01:22:59;;;;;;;8.13;7.83;;;10.80;37.50;;;;;;5010642;28;20780;-74
2022/12/21 01:25:24;;;;;;;9.67;8.90;;;10.80;37.60;;;;;;5010273;28;20694;-74
2022/12/21 01:27:50;;;;;;;9.17;8.67;;;10.80;37.60;;;;;;5010963;28;20185;-74
2022/12/21 01:30:16;;;;;;;7.77;7.43;;;10.80;38.00;;;;;;5010725;28;20184;-74
2022/12/21 01:32:41;;;;;;;8.60;8.20;;;10.70;38.40;;;;;;4993841;28;20205;-73
2022/12/21 01:35:07;;;;;;;8.97;8.43;;;10.70;38.60;;;;;;4993436;28;20494;-73
2022/12/21 01:37:33;;;;;;;9.10;8.70;;;10.70;38.60;;;;;;5011839;28;20253;-74
2022/12/21 01:39:58;;;;;;;9.10;8.60;;;10.70;39.40;;;;;;5011297;28;20604;-74
2022/12/21 01:42:24;;;;;;;8.10;7.70;;;10.70;39.20;;;;;;4993261;28;20239;-75
2022/12/21 01:45:02;;;;;;;8.80;8.30;;;10.60;39.70;;;;;;5009430;28;20693;-74
2022/12/21 01:47:42;;;;;;;8.47;8.07;;;10.60;39.80;;;;;;5010226;28;20643;-75
2022/12/21 01:50:41;;;;;;;8.50;8.10;;;10.60;40.20;;;;;;5011013;28;20844;-75
2022/12/21 01:53:22;;;;;;;10.00;9.50;;;10.60;40.40;;;;;;4992378;28;20416;-74
2022/12/21 01:55:50;;;;;;;8.67;8.30;;;10.60;40.90;;;;;;4992489;28;20438;-74
2022/12/21 01:58:18;;;;;;;8.90;8.30;;;10.60;41.20;;;;;;4993145;28;20788;-75
2022/12/21 02:00:43;;;;;;;8.37;8.07;;;10.60;41.50;;;;;;5010068;28;20405;-74
2022/12/21 02:03:13;;;;;;;8.77;8.20;;;10.60;42.10;;;;;;5010445;28;20418;-74
2022/12/21 02:06:01;;;;;;;8.27;7.97;;;10.60;42.10;;;;;;5010789;28;20213;-74
2022/12/21 02:08:27;;;;;;;8.97;8.13;;;10.60;42.20;;;;;;4992929;28;20468;-74
2022/12/21 02:10:54;;;;;;;8.83;8.00;;;10.50;42.90;;;;;;5008790;28;20483;-74
2022/12/21 02:13:20;;;;;;;8.73;8.23;;;10.50;43.60;;;;;;5010103;28;20643;-74
2022/12/21 02:16:07;;;;;;;8.80;8.20;;;10.50;44.20;;;;;;5009067;28;20424;-74
2022/12/21 02:18:55;;;;;;;8.13;7.80;;;10.50;44.60;;;;;;5009910;28;20205;-74
2022/12/21 02:21:44;;;;;;;8.60;8.20;;;10.50;45.20;;;;;;4992122;28;20427;-73
2022/12/21 02:24:47;;;;;;;9.73;9.07;;;10.40;45.70;;;;;;5009860;28;20418;-74
2022/12/21 02:27:47;;;;;;;8.93;8.53;;;10.40;46.20;;;;;;5010270;28;20466;-74
2022/12/21 02:30:23;;;;;;;8.43;8.00;;;10.40;46.60;;;;;;5010154;28;20776;-75
2022/12/21 02:33:09;;;;;;;7.93;7.60;;;10.40;47.10;;;;;;5010070;28;20499;-74
2022/12/21 02:35:37;;;;;;;7.93;7.63;;;10.50;47.40;;;;;;5009640;28;20486;-74
2022/12/21 02:38:18;;;;;;;7.53;7.23;;;10.50;47.40;;;;;;5009365;28;20918;-73
2022/12/21 02:40:52;;;;;;;8.73;8.33;;;10.60;47.70;;;;;;5009237;28;20482;-74
2022/12/21 02:46:40;;;;;;;8.93;8.43;;;10.50;48.50;;;;;;5009304;28;20870;-74
2022/12/21 02:49:11;;;;;;;7.87;7.60;;;10.60;48.30;;;;;;5009174;28;20444;-74
2022/12/21 02:52:00;;;;;;;8.83;8.53;;;10.60;48.40;;;;;;4992194;28;20509;-74
2022/12/21 02:54:26;;;;;;;7.87;7.53;;;10.60;48.60;;;;;;4992255;28;20423;-73
2022/12/21 02:56:52;;;;;;;7.77;7.47;;;10.60;48.80;;;;;;5009535;28;20416;-74
2022/12/21 02:59:23;;;;;;;8.17;7.87;;;10.60;48.90;;;;;;5009539;28;20982;-74
2022/12/21 03:02:20;;;;;;;8.50;8.10;;;10.60;49.30;;;;;;4991494;28;20666;-75
2022/12/21 03:05:23;;;;;;;7.03;6.83;;;10.50;49.50;;;;;;5009041;28;20416;-75
2022/12/21 03:08:08;;;;;;;7.60;7.30;;;10.50;49.90;;;;;;5009119;28;20460;-75
2022/12/21 03:10:59;;;;;;;9.07;8.57;;;10.40;50.50;;;;;;5009367;28;20752;-74
2022/12/21 03:13:33;;;;;;;8.10;7.80;;;10.40;50.80;;;;;;5009432;28;20484;-75
2022/12/21 03:16:09;;;;;;;8.43;7.97;;;10.40;50.80;;;;;;5009037;28;20404;-75
2022/12/21 03:18:57;;;;;;;8.03;7.63;;;10.40;50.90;;;;;;5009799;28;20416;-74
2022/12/21 03:21:25;;;;;;;8.67;8.07;;;10.40;51.20;;;;;;5008825;28;20400;-74
2022/12/21 03:24:07;;;;;;;7.90;7.60;;;10.40;51.40;;;;;;5008757;28;20826;-74
2022/12/21 03:26:54;;;;;;;8.33;7.90;;;10.30;51.10;;;;;;5008850;28;20456;-75
2022/12/21 03:29:26;;;;;;;8.77;8.37;;;10.30;51.70;;;;;;5009085;28;20455;-74
2022/12/21 03:31:57;;;;;;;8.50;8.10;;;10.30;51.70;;;;;;5008508;28;20415;-74
2022/12/21 03:34:26;;;;;;;9.07;8.57;;;10.30;51.70;;;;;;5008748;28;20423;-74
2022/12/21 03:37:21;;;;;;;9.37;8.57;;;10.30;51.70;;;;;;5008819;28;20462;-75
2022/12/21 03:40:03;;;;;;;9.50;9.10;;;10.20;52.20;;;;;;5008769;28;20443;-74
2022/12/21 03:42:35;;;;;;;8.37;7.97;;;10.20;52.50;;;;;;5009236;28;20919;-74
2022/12/21 03:45:06;;;;;;;9.20;8.70;;;10.20;52.80;;;;;;5008910;28;20404;-74
2022/12/21 03:47:55;;;;;;;9.70;9.20;;;10.20;52.90;;;;;;5008846;28;20437;-74
2022/12/21 03:50:24;;;;;;;8.67;8.37;;;10.20;53.10;;;;;;5008522;28;20775;-74
2022/12/21 03:53:06;;;;;;;9.40;8.90;;;10.20;53.20;;;;;;5008315;28;20916;-73
2022/12/21 03:55:34;;;;;;;7.97;7.67;;;10.20;53.40;;;;;;5008685;28;20408;-74
2022/12/21 03:58:01;;;;;;;8.07;7.67;;;10.20;53.60;;;;;;5008136;28;20435;-74
2022/12/21 04:00:35;;;;;;;8.40;8.00;;;10.20;53.90;;;;;;5008926;28;20428;-74
2022/12/21 04:03:19;;;;;;;8.57;8.10;;;10.20;54.00;;;;;;5008216;28;20756;-74
2022/12/21 04:05:54;;;;;;;11.00;8.57;;;10.20;54.30;;;;;;5008751;28;20486;-74
2022/12/21 04:08:22;;;;;;;9.00;8.50;;;10.20;54.50;;;;;;5008279;28;20451;-74
2022/12/21 04:10:48;;;;;;;8.20;7.90;;;10.20;54.60;;;;;;5008785;28;20914;-74
2022/12/21 04:13:14;;;;;;;8.03;7.63;;;10.20;54.80;;;;;;5008515;28;20409;-75
2022/12/21 04:21:08;;;;;;;8.93;8.33;;;10.20;54.90;;;;;;5012847;28;20853;-73
2022/12/21 04:29:03;;;;;;;8.40;8.03;;;10.30;55.50;;;;;;5011920;28;20455;-75
2022/12/21 04:31:28;;;;;;;7.33;7.03;;;10.30;55.30;;;;;;5013171;28;20937;-75
2022/12/21 04:33:54;;;;;;;7.17;6.87;;;10.30;55.20;;;;;;5012058;28;20416;-75
2022/12/21 04:39:03;;;;;;;8.17;7.87;;;10.40;55.10;;;;;;5023737;28;20208;-73
2022/12/21 04:41:29;;;;;;;7.87;7.57;;;10.50;55.10;;;;;;5022285;28;20909;-74
2022/12/21 04:43:54;;;;;;;8.57;8.17;;;10.50;55.10;;;;;;5018713;28;20697;-74
2022/12/21 04:46:20;;;;;;;7.93;7.43;;;10.60;54.90;;;;;;5018271;28;20240;-74
2022/12/21 04:48:46;;;;;;;7.60;7.30;;;10.60;54.90;;;;;;5017648;28;20586;-74
2022/12/21 04:51:15;;;;;;;7.97;7.40;;;10.60;54.60;;;;;;5013094;28;20181;-74
2022/12/21 04:53:41;;;;;;;7.97;7.57;;;10.70;54.50;;;;;;4994167;28;20495;-75
2022/12/21 04:56:07;;;;;;;7.50;7.10;;;10.70;54.40;;;;;;5011802;28;20443;-75
2022/12/21 04:58:33;;;;;;;7.97;7.67;;;10.80;53.90;;;;;;5011736;28;20472;-75
2022/12/21 05:01:02;;;;;;;8.53;8.13;;;10.80;53.60;;;;;;5012011;28;20458;-75
2022/12/21 05:03:28;;;;;;;8.83;8.43;;;10.80;53.70;;;;;;5014565;28;20174;-75
2022/12/21 05:05:57;;;;;;;8.30;8.00;;;10.80;53.70;;;;;;4995206;28;20463;-75
2022/12/21 05:08:22;;;;;;;8.30;8.00;;;10.90;53.50;;;;;;5012131;28;20444;-75
2022/12/21 05:10:48;;;;;;;8.20;7.90;;;10.80;53.50;;;;;;5012619;28;20466;-74
2022/12/21 05:13:13;;;;;;;8.50;8.10;;;10.90;53.40;;;;;;5012790;28;20165;-75
2022/12/21 05:15:39;;;;;;;8.83;8.43;;;11.00;53.10;;;;;;5012914;28;20655;-75
2022/12/21 05:18:05;;;;;;;8.27;7.77;;;10.90;53.10;;;;;;5012328;28;20195;-75
2022/12/21 05:20:30;;;;;;;8.60;8.20;;;11.00;53.40;;;;;;5012771;28;20545;-75
2022/12/21 05:22:56;;;;;;;8.47;8.17;;;11.00;53.00;;;;;;5012410;28;20546;-75
2022/12/21 05:25:21;;;;;;;8.60;8.30;;;11.00;53.30;;;;;;5011804;28;20499;-74
2022/12/21 05:27:47;;;;;;;8.53;8.23;;;11.00;53.50;;;;;;5009150;28;20193;-75
2022/12/21 05:30:12;;;;;;;8.63;8.20;;;11.00;53.30;;;;;;5013791;28;20184;-73
2022/12/21 05:32:38;;;;;;;8.60;8.30;;;11.00;53.40;;;;;;5013561;28;20542;-74
2022/12/21 05:35:04;;;;;;;8.30;8.00;;;11.00;53.30;;;;;;5023484;28;20218;-74
2022/12/21 05:37:29;;;;;;;8.53;8.23;;;11.00;53.30;;;;;;5028384;28;20364;-74
2022/12/21 05:39:55;;;;;;;8.37;7.87;;;11.00;53.70;;;;;;5005041;28;20555;-75
2022/12/21 05:42:20;;;;;;;8.70;8.30;;;11.00;54.20;;;;;;4995815;28;20185;-75
2022/12/21 05:44:46;;;;;;;7.80;7.50;;;11.00;54.30;;;;;;5014124;28;20633;-74
2022/12/21 05:47:11;;;;;;;8.20;7.93;;;10.90;54.70;;;;;;4995079;28;20357;-74
2022/12/21 05:49:37;;;;;;;7.43;7.20;;;10.90;54.70;;;;;;5013649;28;20201;-75
2022/12/21 05:52:03;;;;;;;7.33;7.03;;;11.00;54.60;;;;;;5024011;28;20172;-75
2022/12/21 05:54:28;;;;;;;8.13;7.83;;;10.90;54.70;;;;;;5033227;28;20611;-75
2022/12/21 05:56:54;;;;;;;7.60;7.40;;;11.00;54.80;;;;;;5033673;28;20840;-73
2022/12/21 05:59:20;;;;;;;8.60;8.10;;;10.90;54.80;;;;;;5033124;28;20662;-73
2022/12/21 06:01:45;;;;;;;8.63;8.20;;;11.00;55.00;;;;;;5033870;28;20177;-74
2022/12/21 06:04:11;;;;;;;8.10;7.80;;;10.90;55.20;;;;;;5033405;28;20184;-74
2022/12/21 06:06:38;;;;;;;7.77;7.47;;;10.90;55.50;;;;;;5033073;28;20236;-73
2022/12/21 06:09:03;;;;;;;8.13;7.67;;;11.00;55.20;;;;;;5033127;28;20215;-75
2022/12/21 06:11:29;;;;;;;7.77;7.57;;;11.00;55.30;;;;;;5033504;28;20743;-74
2022/12/21 06:13:54;;;;;;;8.17;7.97;;;11.00;55.10;;;;;;5033683;28;20169;-74
2022/12/21 06:16:22;;;;;;;8.30;7.80;;;11.00;55.10;;;;;;5033951;28;20250;-74
2022/12/21 06:18:48;;;;;;;8.90;8.50;;;10.90;55.30;;;;;;5033657;28;20192;-74
2022/12/21 06:21:15;;;;;;;8.10;7.80;;;10.90;55.70;;;;;;5026427;28;20560;-73
2022/12/21 06:23:41;;;;;;;9.37;8.60;;;11.00;55.60;;;;;;5024061;28;20177;-73
2022/12/21 06:26:10;;;;;;;7.73;7.33;;;11.00;55.70;;;;;;5013664;28;20459;-73
2022/12/21 06:28:36;;;;;;;8.20;7.90;;;10.90;55.80;;;;;;5013441;28;20478;-73
2022/12/21 06:31:10;;;;;;;7.57;7.30;;;10.90;56.00;;;;;;4995521;28;20504;-74
2022/12/21 06:33:36;;;;;;;8.00;7.70;;;10.90;56.30;;;;;;5013620;28;20211;-73
2022/12/21 06:36:03;;;;;;;7.70;7.40;;;10.90;56.50;;;;;;5013762;28;20413;-73
2022/12/21 06:38:30;;;;;;;8.63;8.13;;;10.80;57.10;;;;;;5013172;28;20507;-73
2022/12/21 06:40:58;;;;;;;7.43;7.10;;;10.80;57.30;;;;;;5016077;28;20499;-73
2022/12/21 06:43:26;;;;;;;7.47;7.17;;;10.80;57.40;;;;;;4999313;28;20442;-73
2022/12/21 06:45:56;;;;;;;7.37;7.07;;;10.80;57.80;;;;;;5019054;28;20456;-74
2022/12/21 06:48:23;;;;;;;7.70;7.03;;;10.80;58.10;;;;;;5038826;28;20415;-72
2022/12/21 06:50:56;;;;;;;8.13;7.33;;;10.80;58.50;;;;;;5047769;28;20426;-73
2022/12/21 06:53:24;;;;;;;7.77;7.43;;;10.80;58.40;;;;;;5042125;28;20448;-74
2022/12/21 06:55:56;;;;;;;7.80;7.43;;;10.80;58.60;;;;;;5034520;28;20444;-74
2022/12/21 06:58:22;;;;;;;7.67;7.27;;;10.80;58.20;;;;;;5031298;28;20477;-75
2022/12/21 07:00:49;;;;;;;6.97;6.57;;;10.90;58.20;;;;;;5036703;28;20451;-75
2022/12/21 07:03:14;;;;;;;8.70;8.10;;;10.90;58.10;;;;;;5047219;28;20178;-75
2022/12/21 07:05:40;;;;;;;7.73;7.37;;;10.90;58.20;;;;;;5036020;28;20468;-74
2022/12/21 07:08:05;;;;;;;8.00;7.40;;;10.80;58.00;;;;;;5036463;28;20205;-76
2022/12/21 07:10:31;;;;;;;8.00;7.37;;;10.80;58.40;;;;;;5036242;28;20165;-75
2022/12/21 07:12:56;;;;;;;7.20;6.90;;;10.80;58.60;;;;;;5036097;28;20165;-75
2022/12/21 07:15:22;;;;;;;7.33;7.03;;;10.80;58.70;;;;;;5018554;28;20174;-76
2022/12/21 07:17:47;;;;;;;7.30;7.00;;;10.80;58.50;;;;;;5032842;28;20224;-75
2022/12/21 07:20:14;;;;;;;6.87;6.57;;;10.80;58.70;;;;;;5014573;28;20224;-75
2022/12/21 07:22:40;;;;;;;7.33;6.93;;;10.80;58.50;;;;;;5030862;28;20409;-74
2022/12/21 07:25:05;;;;;;;7.83;7.37;;;10.90;58.80;;;;;;5024967;28;20171;-75
2022/12/21 07:27:31;;;;;;;7.37;7.10;;;10.90;58.20;;;;;;5022003;28;20197;-74
2022/12/21 07:29:57;;;;;;;7.47;7.10;;;10.90;58.00;;;;;;5022085;28;20408;-74
2022/12/21 07:32:22;;;;;;;7.37;6.87;;;11.00;58.20;;;;;;5037142;28;20635;-74
2022/12/21 07:34:48;;;;;;;7.67;7.23;;;10.90;58.00;;;;;;5034238;28;20184;-73
2022/12/21 07:37:13;;;;;;;6.20;6.00;;;11.10;57.80;;;;;;5034460;28;20651;-73
2022/12/21 07:39:39;;;;;;;7.80;7.50;;;11.00;57.50;;;;;;5033126;28;20201;-74
2022/12/21 07:42:04;;;;;;;6.83;6.63;;;11.00;57.50;;;;;;5033321;28;20219;-73
2022/12/21 07:44:30;;;;;;;7.20;7.00;;;11.00;57.40;;;;;;5033173;28;20184;-73
2022/12/21 07:46:55;;;;;;;8.20;7.80;;;11.00;57.60;;;;;;5033338;28;20222;-73
2022/12/21 07:49:21;;;;;;;7.60;7.17;;;11.00;57.70;;;;;;5033052;28;20199;-74
2022/12/21 07:51:46;;;;;;;6.90;6.50;;;10.90;57.60;;;;;;5032155;28;20169;-74
2022/12/21 07:54:12;;;;;;;6.50;6.30;;;10.90;57.90;;;;;;5032434;28;20177;-74
2022/12/21 07:56:38;;;;;;;6.73;6.43;;;10.90;58.10;;;;;;5022603;28;20835;-74
2022/12/21 07:59:03;;;;;;;6.80;6.40;;;10.90;58.00;;;;;;5011588;28;20205;-74
2022/12/21 08:01:29;;;;;;;6.87;6.37;;;10.90;58.10;;;;;;5012528;28;20177;-74
2022/12/21 08:03:57;;;;;;;6.17;5.97;;;10.80;58.70;;;;;;5012538;28;20175;-74
2022/12/21 08:06:23;;;;;;;6.10;5.80;;;10.80;58.70;;;;;;5012646;28;20198;-74
2022/12/21 08:08:48;;;;;;;7.60;7.00;;;10.80;58.80;;;;;;4994759;28;21040;-74
2022/12/21 08:11:16;;;;;;;11.37;7.33;;;10.80;59.60;;;;;;5011918;28;20184;-74
2022/12/21 08:13:42;;;;;;;7.67;7.17;;;10.70;59.80;;;;;;5011987;28;20172;-75
2022/12/21 08:16:10;;;;;;;6.33;6.03;;;10.70;60.30;;;;;;5012100;28;20885;-75
2022/12/21 08:18:37;;;;;;;6.40;6.00;;;10.70;60.60;;;;;;5023641;28;20608;-75
2022/12/21 08:21:03;;;;;;;6.67;6.27;;;10.70;60.50;;;;;;5005833;28;20847;-75
2022/12/21 08:23:29;;;;;;;7.20;6.90;;;10.60;60.70;;;;;;5011857;28;20448;-75
2022/12/21 08:26:03;;;;;;;7.80;7.30;;;10.60;60.80;;;;;;5012104;28;20452;-74
2022/12/21 08:28:30;;;;;;;7.83;7.43;;;10.60;60.30;;;;;;5011970;28;20431;-75
2022/12/21 08:31:10;;;;;;;7.63;7.20;;;10.70;60.90;;;;;;4994259;28;20456;-75
2022/12/21 08:33:37;;;;;;;7.37;6.97;;;10.60;60.70;;;;;;5011502;28;20852;-76
2022/12/21 08:36:09;;;;;;;7.90;7.43;;;10.60;60.60;;;;;;4994061;28;20425;-75
2022/12/21 08:38:34;;;;;;;8.03;7.63;;;10.60;59.90;;;;;;5011839;28;20432;-75
2022/12/21 08:41:01;;;;;;;7.43;7.03;;;10.60;59.60;;;;;;5011480;28;20479;-74
2022/12/21 08:43:27;;;;;;;7.20;6.90;;;10.70;59.70;;;;;;5011544;28;20709;-74
2022/12/21 08:45:52;;;;;;;6.93;6.63;;;10.60;59.20;;;;;;4978140;28;20461;-75
2022/12/21 08:48:18;;;;;;;6.00;5.80;;;10.70;59.40;;;;;;4991496;28;20190;-75
2022/12/21 08:50:50;;;;;;;7.00;6.70;;;10.70;59.30;;;;;;5019992;28;20211;-75
2022/12/21 08:53:16;;;;;;;6.70;6.40;;;10.70;59.50;;;;;;5030658;28;20173;-75
2022/12/21 08:55:41;;;;;;;7.20;6.80;;;10.70;58.70;;;;;;5031128;28;20442;-75
2022/12/21 08:58:07;;;;;;;8.73;8.20;;;10.80;58.50;;;;;;5030780;28;20310;-75
2022/12/21 09:00:32;;;;;;;8.60;8.13;;;10.80;58.40;;;;;;5014953;28;20178;-75
2022/12/21 09:02:58;;;;;;;6.60;6.40;;;10.80;58.00;;;;;;5013336;28;20178;-75
2022/12/21 09:05:23;;;;;;;9.57;9.00;;;10.80;58.00;;;;;;5014734;28;20170;-75
2022/12/21 09:07:49;;;;;;;8.87;8.07;;;10.80;57.80;;;;;;5011597;28;20228;-75
2022/12/21 09:10:14;;;;;;;11.27;10.37;;;10.80;57.80;;;;;;5005780;28;20668;-75
2022/12/21 09:12:40;;;;;;;10.43;9.87;;;10.80;57.80;;;;;;5009292;28;20216;-75
2022/12/21 09:15:06;;;;;;;8.17;7.77;;;10.80;57.60;;;;;;4996964;28;20254;-75
2022/12/21 09:17:32;;;;;;;7.73;7.43;;;10.80;57.90;;;;;;5015436;28;20260;-75
2022/12/21 09:19:57;;;;;;;7.70;7.30;;;10.80;57.50;;;;;;4998693;28;20486;-74
2022/12/21 09:22:23;;;;;;;7.70;7.40;;;10.80;57.20;;;;;;5015281;28;20176;-75
2022/12/21 09:24:49;;;;;;;8.13;7.83;;;10.90;57.00;;;;;;5015250;28;20620;-74
2022/12/21 09:27:14;;;;;;;7.40;7.10;;;10.80;57.20;;;;;;5017994;28;20205;-73
2022/12/21 09:29:40;;;;;;;7.70;7.40;;;10.90;57.20;;;;;;5017267;28;20189;-75
2022/12/21 09:32:05;;;;;;;7.37;7.03;;;10.90;57.10;;;;;;5016792;28;20224;-74
2022/12/21 09:34:31;;;;;;;9.00;8.40;;;10.80;56.90;;;;;;5014539;28;20371;-74
2022/12/21 09:36:56;;;;;;;7.40;7.10;;;10.80;57.00;;;;;;5014494;28;20264;-74
2022/12/21 09:39:22;;;;;;;7.40;7.10;;;10.80;56.90;;;;;;5014700;28;20197;-75
2022/12/21 09:42:22;;;;;;;8.77;8.37;;;10.80;56.40;;;;;;5014696;28;20208;-75
2022/12/21 09:44:56;;;;;;;8.67;8.17;;;10.90;56.50;;;;;;5014138;28;20181;-75
2022/12/21 09:47:48;;;;;;;7.40;7.10;;;10.90;56.60;;;;;;5014322;28;20554;-75
2022/12/21 09:50:40;;;;;;;7.00;6.70;;;10.90;57.20;;;;;;4999971;28;20926;-75
2022/12/21 09:53:15;;;;;;;8.20;7.50;;;10.80;56.40;;;;;;5014046;28;20495;-74
2022/12/21 09:55:54;;;;;;;7.60;7.30;;;10.90;56.20;;;;;;5014306;28;20780;-74
2022/12/21 09:58:35;;;;;;;7.83;7.43;;;10.80;57.00;;;;;;5014391;28;20477;-74
2022/12/21 10:01:27;;;;;;;7.30;7.00;;;10.90;56.80;;;;;;4996807;28;20431;-74
2022/12/21 10:04:10;;;;;;;7.80;7.50;;;10.90;56.00;;;;;;5011171;28;20455;-74
2022/12/21 10:06:50;;;;;;;12.13;11.17;;;10.90;55.90;;;;;;5013879;28;20467;-74
2022/12/21 10:09:23;;;;;;;8.20;7.80;;;10.90;56.40;;;;;;5014190;28;20458;-74
2022/12/21 10:12:17;;;;;;;8.40;8.00;;;10.90;55.90;;;;;;5013854;28;20413;-75
2022/12/21 10:15:19;;;;;;;8.27;7.67;;;10.90;55.90;;;;;;4994057;28;20930;-76
2022/12/21 10:18:07;;;;;;;8.60;8.00;;;10.90;56.40;;;;;;4991949;28;20532;-76
2022/12/21 10:21:05;;;;;;;7.60;7.20;;;10.90;56.60;;;;;;4994255;28;20476;-75
2022/12/21 10:23:57;;;;;;;8.07;7.67;;;10.90;56.50;;;;;;5004742;28;20431;-74
2022/12/21 10:26:26;;;;;;;8.13;7.10;;;10.90;56.30;;;;;;5029744;28;20481;-75
2022/12/21 10:28:56;;;;;;;7.63;7.23;;;10.90;56.00;;;;;;5040598;28;20432;-74
2022/12/21 10:31:42;;;;;;;10.13;9.43;;;10.90;56.10;;;;;;5022446;28;20415;-75
2022/12/21 10:34:24;;;;;;;7.43;7.13;;;10.90;56.30;;;;;;5040438;28;20411;-74
2022/12/21 10:36:55;;;;;;;9.10;7.73;;;10.90;56.40;;;;;;5022436;28;20964;-73
2022/12/21 10:39:20;;;;;;;8.17;7.77;;;10.80;56.10;;;;;;5033778;28;20431;-74
2022/12/21 10:41:59;;;;;;;8.47;7.97;;;10.90;56.50;;;;;;5035263;28;20483;-75
2022/12/21 10:44:25;;;;;;;8.80;8.30;;;10.90;56.20;;;;;;5039522;28;20183;-75
2022/12/21 10:46:50;;;;;;;7.77;7.47;;;10.90;56.00;;;;;;5038936;28;20534;-76
2022/12/21 10:49:25;;;;;;;8.03;7.50;;;11.00;56.00;;;;;;5036241;28;20196;-75
2022/12/21 10:51:51;;;;;;;9.17;8.57;;;11.00;55.50;;;;;;5040701;28;20160;-74
2022/12/21 10:54:28;;;;;;;8.17;7.77;;;11.00;55.30;;;;;;5037304;28;20980;-75
2022/12/21 10:56:56;;;;;;;7.73;7.43;;;11.00;55.10;;;;;;5019315;28;20659;-75
2022/12/21 10:59:24;;;;;;;7.10;6.90;;;11.00;55.10;;;;;;5034764;28;20521;-74
2022/12/21 11:01:51;;;;;;;7.27;7.07;;;11.00;54.80;;;;;;5033145;28;20796;-76
2022/12/21 11:04:27;;;;;;;8.30;7.90;;;11.10;55.00;;;;;;5033118;28;20914;-74
2022/12/21 11:07:01;;;;;;;7.43;7.03;;;11.00;54.80;;;;;;5027706;28;20467;-75
2022/12/21 11:09:33;;;;;;;8.03;7.70;;;11.10;54.70;;;;;;5020290;28;20780;-75
2022/12/21 11:12:17;;;;;;;7.80;7.50;;;11.10;54.60;;;;;;5012617;28;20918;-75
2022/12/21 11:14:43;;;;;;;6.73;6.43;;;11.10;54.20;;;;;;5015525;28;20427;-75
2022/12/21 11:17:15;;;;;;;7.50;7.10;;;11.10;54.30;;;;;;5012644;28;20795;-75
2022/12/21 11:19:41;;;;;;;8.47;8.07;;;11.10;53.80;;;;;;4994970;28;20200;-75
2022/12/21 11:22:07;;;;;;;7.90;7.60;;;11.00;53.80;;;;;;5007969;28;20427;-74
2022/12/21 11:24:38;;;;;;;8.10;7.80;;;11.10;54.10;;;;;;5012228;28;20177;-75
2022/12/21 11:27:24;;;;;;;9.10;8.70;;;11.00;53.80;;;;;;5012500;28;20467;-74
2022/12/21 11:30:00;;;;;;;8.60;8.20;;;11.00;53.70;;;;;;5012173;28;20412;-75
2022/12/21 11:32:29;;;;;;;8.40;7.97;;;11.00;54.00;;;;;;5012677;28;20424;-75
2022/12/21 11:35:03;;;;;;;8.27;7.77;;;11.00;53.70;;;;;;5030404;28;20502;-75
2022/12/21 11:37:38;;;;;;;8.07;7.70;;;11.10;54.10;;;;;;5000484;28;20427;-76
2022/12/21 11:40:15;;;;;;;7.83;7.37;;;11.10;53.80;;;;;;5031804;28;21055;-76
2022/12/21 11:42:58;;;;;;;9.10;8.70;;;11.20;53.70;;;;;;5032612;28;20404;-76
2022/12/21 11:45:25;;;;;;;9.33;8.77;;;11.30;52.50;;;;;;5032182;28;20411;-76
2022/12/21 11:48:03;;;;;;;8.60;8.17;;;11.30;53.10;;;;;;5014717;28;20471;-75
2022/12/21 11:51:06;;;;;;;8.43;8.13;;;11.40;52.60;;;;;;5032684;28;20399;-76
2022/12/21 11:53:53;;;;;;;10.10;9.30;;;11.50;52.70;;;;;;5032237;28;20506;-75
2022/12/21 11:56:44;;;;;;;9.10;8.70;;;11.60;52.10;;;;;;5014697;28;20412;-76
2022/12/21 11:59:47;;;;;;;9.97;9.47;;;11.60;52.20;;;;;;4975475;28;20444;-77
2022/12/21 12:02:46;;;;;;;9.30;8.87;;;11.70;52.10;;;;;;4992663;28;20419;-75
2022/12/21 12:05:53;;;;;;;10.13;9.60;;;11.80;51.90;;;;;;4975020;28;20540;-74
2022/12/21 12:08:52;;;;;;;8.80;8.40;;;11.80;52.00;;;;;;4952379;28;20470;-75
2022/12/21 12:11:42;;;;;;;8.40;7.90;;;11.90;51.80;;;;;;4966853;28;20831;-76
2022/12/21 12:14:18;;;;;;;8.83;8.30;;;12.00;51.60;;;;;;5017658;28;20974;-75
2022/12/21 12:16:50;;;;;;;9.40;9.07;;;12.00;51.50;;;;;;5031508;28;20419;-75
2022/12/21 12:19:51;;;;;;;9.07;8.67;;;12.10;51.20;;;;;;5025804;28;20958;-75
2022/12/21 12:22:52;;;;;;;8.50;8.20;;;12.20;51.20;;;;;;5013454;28;20411;-75
2022/12/21 12:25:43;;;;;;;8.43;8.13;;;12.20;50.20;;;;;;4975906;28;20416;-77
2022/12/21 12:28:34;;;;;;;8.53;8.23;;;12.20;49.80;;;;;;5015115;28;20431;-75
2022/12/21 12:31:07;;;;;;;8.83;8.33;;;12.30;49.50;;;;;;5019965;28;20446;-76
2022/12/21 12:34:04;;;;;;;8.40;8.10;;;12.40;49.20;;;;;;5018039;28;20416;-75
2022/12/21 12:36:35;;;;;;;8.73;8.40;;;12.40;48.60;;;;;;5023059;28;20408;-77
2022/12/21 12:39:24;;;;;;;8.90;8.50;;;12.50;48.80;;;;;;5015522;28;20454;-75
2022/12/21 12:42:04;;;;;;;8.20;7.90;;;12.60;48.60;;;;;;5015800;28;20419;-77
2022/12/21 12:44:59;;;;;;;8.60;8.20;;;12.60;48.50;;;;;;5017816;28;20523;-76
2022/12/21 12:47:53;;;;;;;9.53;9.13;;;12.50;48.20;;;;;;4997785;28;20463;-74
2022/12/21 12:50:27;;;;;;;9.03;8.70;;;12.40;48.10;;;;;;5015488;28;20412;-76
2022/12/21 12:53:17;;;;;;;8.20;7.90;;;12.40;48.40;;;;;;5014952;28;20404;-74
2022/12/21 12:56:08;;;;;;;8.80;8.50;;;12.40;48.30;;;;;;5015684;28;20483;-75
2022/12/21 12:58:42;;;;;;;10.00;9.70;;;12.40;48.60;;;;;;4997498;28;20526;-75
2022/12/21 13:01:23;;;;;;;9.80;9.40;;;12.40;48.10;;;;;;5021399;28;20909;-78
2022/12/21 13:04:22;;;;;;;9.07;8.77;;;12.40;48.50;;;;;;5026604;28;20392;-76
2022/12/21 13:07:01;;;;;;;10.13;9.63;;;12.30;48.60;;;;;;5035171;28;20463;-76
2022/12/21 13:09:45;;;;;;;9.13;8.73;;;12.30;48.60;;;;;;5035015;28;20445;-74
2022/12/21 13:12:19;;;;;;;9.60;9.30;;;12.30;48.70;;;;;;4995652;28;20762;-77
2022/12/21 13:15:02;;;;;;;11.23;10.73;;;12.30;48.50;;;;;;4995593;28;20479;-75
2022/12/21 13:17:57;;;;;;;10.20;9.80;;;12.30;48.60;;;;;;4995148;28;20416;-75
2022/12/21 13:20:24;;;;;;;9.57;9.27;;;12.30;48.60;;;;;;5000240;28;21052;-75
2022/12/21 13:22:59;;;;;;;10.00;9.50;;;12.30;48.50;;;;;;5000822;28;20456;-76
2022/12/21 13:25:38;;;;;;;9.47;9.17;;;12.30;48.70;;;;;;4999421;28;20428;-73
2022/12/21 13:28:13;;;;;;;9.70;9.30;;;12.30;48.50;;;;;;5022083;28;20466;-74
2022/12/21 13:30:40;;;;;;;9.50;9.20;;;12.20;49.00;;;;;;5021950;28;20411;-74